Time;durP1;ratioP1;P1;durP2;ratioP2;P2;SDS_P1;SDS_P2;PMS_P1;PMS_P2;Temp;Humidity;BMP_temperature;BMP_pressure;BME280_temperature;BME280_humidity;BME280_pressure;Samples;Min_cycle;Max_cycle;Signal;HPM_P1;HPM_P2
2021/01/11 00:00:21;;;;;;;67.55;25.92;;;;;;;-4.23;100.00;99735.95;4309366;81;43608;-80
2021/01/11 00:06:24;;;;;;;69.62;28.23;;;;;;;-4.42;100.00;99743.09;4269127;81;44078;-80
2021/01/11 00:12:27;;;;;;;71.40;28.75;;;;;;;-4.49;100.00;99743.55;4370593;80;44181;-78
2021/01/11 00:18:29;;;;;;;72.37;26.82;;;;;;;-4.45;100.00;99743.30;4337899;81;44046;-77
2021/01/11 00:24:31;;;;;;;68.72;26.62;;;;;;;-4.56;100.00;99737.08;4327926;81;43699;-78
2021/01/11 00:30:33;;;;;;;68.40;27.58;;;;;;;-4.80;100.00;99734.05;4380613;80;44079;-80
2021/01/11 00:36:35;;;;;;;69.67;27.25;;;;;;;-4.86;100.00;99730.56;4317429;81;44114;-80
2021/01/11 00:42:37;;;;;;;64.10;25.43;;;;;;;-4.99;100.00;99731.97;4342065;80;43331;-78
2021/01/11 00:48:42;;;;;;;76.37;30.12;;;;;;;-5.08;100.00;99728.22;4334535;81;28603;-78
2021/01/11 00:54:44;;;;;;;63.92;27.48;;;;;;;-4.93;100.00;99710.51;4339299;81;43400;-79
2021/01/11 01:00:49;;;;;;;79.35;30.30;;;;;;;-4.92;100.00;99724.47;4345240;81;43656;-78
2021/01/11 01:06:56;;;;;;;78.75;32.05;;;;;;;-4.97;100.00;99723.97;4353432;81;43119;-80
2021/01/11 01:12:57;;;;;;;86.97;33.90;;;;;;;-4.95;100.00;99721.59;4343456;81;44081;-79
2021/01/11 01:19:01;;;;;;;95.25;35.83;;;;;;;-4.94;100.00;99714.09;4350892;81;44440;-80
2021/01/11 01:25:03;;;;;;;88.17;32.65;;;;;;;-4.98;100.00;99702.16;4345122;80;44111;-79
2021/01/11 01:31:05;;;;;;;91.92;34.15;;;;;;;-5.07;100.00;99699.73;4329647;81;44109;-79
2021/01/11 01:37:08;;;;;;;87.92;34.20;;;;;;;-5.12;100.00;99690.07;4276414;81;44069;-79
2021/01/11 01:43:10;;;;;;;84.72;32.63;;;;;;;-5.27;100.00;99679.39;4341210;80;43087;-79
2021/01/11 01:49:12;;;;;;;94.45;34.67;;;;;;;-5.42;100.00;99686.59;4345862;81;44109;-79
2021/01/11 01:55:14;;;;;;;80.65;31.80;;;;;;;-5.33;100.00;99688.08;4260506;81;43135;-79
2021/01/11 02:01:16;;;;;;;81.00;31.48;;;;;;;-5.48;100.00;99684.80;4364028;80;43087;-79
2021/01/11 02:07:37;;;;;;;96.55;36.40;;;;;;;-5.63;100.00;99684.12;4343963;80;44506;-81
2021/01/11 02:14:02;;;;;;;107.58;39.25;;;;;;;-5.66;100.00;99675.64;4373063;80;44264;-83
2021/01/11 02:20:16;;;;;;;104.92;37.42;;;;;;;-5.63;100.00;99674.95;4365061;80;43599;-81
2021/01/11 02:27:03;;;;;;;106.78;36.93;;;;;;;-5.73;100.00;99672.63;4366964;79;43973;-80
2021/01/11 02:33:12;;;;;;;100.97;36.68;;;;;;;-5.74;100.00;99673.09;4311390;81;44168;-80
2021/01/11 02:39:15;;;;;;;109.72;39.63;;;;;;;-5.92;100.00;99673.13;4313080;81;44287;-79
2021/01/11 02:45:16;;;;;;;116.97;41.37;;;;;;;-6.07;100.00;99664.60;4317266;81;44688;-80
2021/01/11 02:51:30;;;;;;;103.58;37.35;;;;;;;-6.16;100.00;99671.30;4353227;81;43837;-78
2021/01/11 02:57:56;;;;;;;102.00;37.30;;;;;;;-6.15;100.00;99662.50;4344139;81;43472;-79
2021/01/11 03:04:00;;;;;;;107.27;38.92;;;;;;;-6.25;100.00;99669.33;4336704;81;44844;-79
2021/01/11 03:10:03;;;;;;;107.57;39.97;;;;;;;-6.28;100.00;99671.71;4334010;81;34753;-79
2021/01/11 03:16:05;;;;;;;120.92;41.33;;;;;;;-6.35;100.00;99666.07;4315002;81;43930;-79
2021/01/11 03:22:07;;;;;;;107.90;39.48;;;;;;;-6.37;100.00;99657.95;4317417;81;44336;-79
2021/01/11 03:28:09;;;;;;;113.62;41.53;;;;;;;-6.45;100.00;99658.00;4325966;81;44630;-78
2021/01/11 03:34:12;;;;;;;113.35;39.13;;;;;;;-6.53;100.00;99655.07;4318044;81;44692;-79
2021/01/11 03:40:14;;;;;;;108.45;39.18;;;;;;;-6.56;100.00;99660.98;4320493;81;44310;-79
2021/01/11 03:46:18;;;;;;;111.83;38.92;;;;;;;-6.63;100.00;99659.27;4350951;81;44596;-79
2021/01/11 03:52:20;;;;;;;113.22;40.35;;;;;;;-6.62;100.00;99655.25;4331124;81;44630;-79
2021/01/11 03:58:22;;;;;;;114.95;38.15;;;;;;;-6.66;100.00;99659.03;4375427;80;44608;-80
2021/01/11 04:04:24;;;;;;;112.15;38.23;;;;;;;-6.49;100.00;99658.32;4397543;80;45064;-80
2021/01/11 04:10:26;;;;;;;104.38;36.80;;;;;;;-6.67;100.00;99665.17;4329999;80;43589;-80
2021/01/11 04:16:29;;;;;;;99.42;36.60;;;;;;;-6.67;100.00;99669.58;4360352;80;44516;-80
2021/01/11 04:22:32;;;;;;;107.50;37.95;;;;;;;-6.83;100.00;99667.99;4365048;80;43922;-79
2021/01/11 04:28:35;;;;;;;107.58;37.03;;;;;;;-6.89;100.00;99665.81;4403367;80;43586;-80
2021/01/11 04:34:37;;;;;;;104.30;37.88;;;;;;;-6.86;100.00;99665.59;4360004;80;43938;-79
2021/01/11 04:40:39;;;;;;;103.05;37.08;;;;;;;-6.91;100.00;99655.93;4356724;80;43553;-80
2021/01/11 04:46:43;;;;;;;96.82;35.10;;;;;;;-6.97;100.00;99660.25;4369088;80;44324;-81
2021/01/11 04:52:46;;;;;;;90.28;31.00;;;;;;;-6.89;100.00;99650.94;4289404;81;28573;-80
2021/01/11 05:05:13;;;;;;;85.15;30.32;;;;;;;-6.60;100.00;99651.23;4372922;79;77303;-82
2021/01/11 05:11:15;;;;;;;93.95;33.15;;;;;;;-6.77;100.00;99651.05;4309404;80;44074;-81
2021/01/11 05:17:17;;;;;;;104.03;37.88;;;;;;;-6.79;100.00;99657.70;4314065;80;43965;-81
2021/01/11 05:23:20;;;;;;;91.40;31.30;;;;;;;-6.70;100.00;99655.41;4319316;80;44149;-81
2021/01/11 05:29:22;;;;;;;100.45;34.18;;;;;;;-6.78;100.00;99649.38;4323498;80;44317;-81
2021/01/11 05:35:27;;;;;;;95.35;33.58;;;;;;;-6.86;100.00;99657.30;4311473;80;44124;-81
2021/01/11 05:41:32;;;;;;;92.90;33.18;;;;;;;-6.93;100.00;99657.33;4310268;80;44160;-80
2021/01/11 05:47:33;;;;;;;88.82;30.97;;;;;;;-6.81;100.00;99650.90;4332338;80;43765;-81
2021/01/11 05:53:41;;;;;;;86.08;32.17;;;;;;;-6.82;100.00;99658.38;4315303;80;43781;-81
2021/01/11 05:59:43;;;;;;;85.10;32.00;;;;;;;-7.05;100.00;99656.36;4308240;80;43321;-80
2021/01/11 06:05:45;;;;;;;77.58;28.77;;;;;;;-6.96;100.00;99661.47;4319656;81;43673;-82
2021/01/11 06:11:50;;;;;;;82.70;28.67;;;;;;;-6.97;100.00;99670.70;4322032;81;43734;-77
2021/01/11 06:17:58;;;;;;;69.40;26.10;;;;;;;-7.21;100.00;99680.55;4334583;81;43906;-76
2021/01/11 06:24:19;;;;;;;68.15;23.73;;;;;;;-7.09;100.00;99684.11;4328982;81;44101;-77
2021/01/11 06:30:37;;;;;;;60.25;23.50;;;;;;;-7.06;100.00;99688.67;4329856;81;44124;-86
2021/01/11 06:36:40;;;;;;;55.52;21.65;;;;;;;-7.00;100.00;99683.05;4335639;81;44162;-77
2021/01/11 06:42:43;;;;;;;61.25;22.65;;;;;;;-7.00;100.00;99695.27;4326614;81;44333;-80
2021/01/11 06:48:46;;;;;;;58.23;22.73;;;;;;;-7.07;100.00;99693.53;4323346;81;44089;-80
2021/01/11 06:54:49;;;;;;;63.80;22.82;;;;;;;-6.98;100.00;99689.95;4348068;81;44062;-80
2021/01/11 07:00:56;;;;;;;56.65;22.62;;;;;;;-6.79;100.00;99694.32;4332688;81;44186;-80
2021/01/11 07:07:02;;;;;;;58.08;21.30;;;;;;;-6.72;100.00;99686.44;4362516;81;44165;-80
2021/01/11 07:13:23;;;;;;;62.67;23.12;;;;;;;-6.64;100.00;99685.06;4331344;81;44429;-80
2021/01/11 07:19:43;;;;;;;58.55;21.10;;;;;;;-6.65;100.00;99680.77;4338358;81;44148;-79
2021/01/11 07:25:48;;;;;;;55.12;22.62;;;;;;;-6.39;100.00;99692.55;4318341;81;44128;-79
2021/01/11 07:31:53;;;;;;;55.58;21.50;;;;;;;-6.25;100.00;99695.05;4316857;81;28654;-79
2021/01/11 07:37:55;;;;;;;56.65;22.10;;;;;;;-6.08;100.00;99691.73;4308787;82;44105;-78
2021/01/11 07:44:20;;;;;;;55.90;22.48;;;;;;;-5.89;100.00;99695.98;4322631;82;44113;-79
2021/01/11 07:50:29;;;;;;;60.88;22.35;;;;;;;-5.84;100.00;99697.45;4301238;82;28959;-79
2021/01/11 07:56:33;;;;;;;66.30;24.60;;;;;;;-5.68;100.00;99695.39;4315058;82;43800;-81
2021/01/11 08:02:36;;;;;;;65.85;24.85;;;;;;;-5.55;100.00;99705.02;4310570;82;43729;-77
2021/01/11 08:08:41;;;;;;;77.67;29.30;;;;;;;-5.36;100.00;99706.67;4314741;82;43723;-79
2021/01/11 08:14:45;;;;;;;88.65;32.73;;;;;;;-5.22;100.00;99709.56;4316585;82;28565;-79
2021/01/11 08:20:49;;;;;;;79.50;30.48;;;;;;;-4.99;100.00;99708.36;4309977;82;43411;-78
2021/01/11 08:27:06;;;;;;;92.53;35.40;;;;;;;-4.76;100.00;99709.73;4305279;82;44440;-77
2021/01/11 08:33:08;;;;;;;82.10;32.30;;;;;;;-4.57;100.00;99707.03;4318777;82;43139;-81
2021/01/11 08:39:15;;;;;;;77.32;30.72;;;;;;;-4.49;100.00;99715.98;4318912;81;43609;-79
2021/01/11 08:45:35;;;;;;;73.25;29.05;;;;;;;-4.24;100.00;99711.46;4337133;82;44094;-81
2021/01/11 08:51:37;;;;;;;73.72;28.83;;;;;;;-4.11;100.00;99707.91;4323494;82;44084;-81
2021/01/11 08:57:39;;;;;;;80.40;31.37;;;;;;;-3.89;100.00;99717.55;4312001;82;43058;-81
2021/01/11 09:03:52;;;;;;;71.67;28.47;;;;;;;-3.69;100.00;99709.42;4323237;82;44156;-80
2021/01/11 09:09:55;;;;;;;65.00;26.68;;;;;;;-3.52;100.00;99705.90;4314468;82;43467;-80
2021/01/11 09:16:12;;;;;;;69.37;27.00;;;;;;;-3.61;100.00;99711.89;4316238;81;34716;-81
2021/01/11 09:22:40;;;;;;;61.42;25.55;;;;;;;-3.48;100.00;99709.12;4474490;77;85127;-81
2021/01/11 09:28:42;;;;;;;65.92;25.60;;;;;;;-3.43;100.00;99710.42;4393761;79;43330;-80
2021/01/11 09:34:45;;;;;;;64.05;25.30;;;;;;;-3.19;100.00;99711.19;4406223;80;43797;-82
2021/01/11 09:40:47;;;;;;;55.58;23.98;;;;;;;-3.06;100.00;99697.38;4402380;78;44080;-81
2021/01/11 09:46:55;;;;;;;57.25;24.23;;;;;;;-2.98;100.00;99700.20;4403427;78;44116;-79
2021/01/11 09:53:01;;;;;;;62.93;25.65;;;;;;;-2.79;100.00;99698.69;4399955;80;42914;-79
2021/01/11 09:59:05;;;;;;;61.23;24.30;;;;;;;-2.72;100.00;99697.19;4393547;78;28565;-80
2021/01/11 10:05:08;;;;;;;63.33;22.87;;;;;;;-2.72;100.00;99697.19;4385319;78;43300;-81
2021/01/11 10:11:18;;;;;;;51.58;22.22;;;;;;;-2.59;100.00;99684.33;4372293;79;44057;-81
2021/01/11 10:17:20;;;;;;;47.45;20.62;;;;;;;-2.55;100.00;99675.19;4402264;78;43869;-84
2021/01/11 10:23:23;;;;;;;48.63;21.30;;;;;;;-2.41;100.00;99672.20;4404271;80;44465;-83
2021/01/11 10:29:26;;;;;;;48.95;19.65;;;;;;;-2.34;100.00;99663.32;4400688;78;44105;-82
2021/01/11 10:35:29;;;;;;;49.13;21.07;;;;;;;-2.28;100.00;99661.45;4404788;78;44487;-80
2021/01/11 10:41:32;;;;;;;46.00;19.80;;;;;;;-2.19;100.00;99653.23;4262969;81;43759;-80
2021/01/11 10:47:34;;;;;;;46.05;21.10;;;;;;;-2.07;100.00;99637.34;4258700;81;43752;-79
2021/01/11 10:53:42;;;;;;;48.38;21.23;;;;;;;-1.95;100.00;99629.67;4274899;81;44551;-77
2021/01/11 10:59:44;;;;;;;49.08;22.15;;;;;;;-1.83;100.00;99631.22;4265670;81;44444;-80
2021/01/11 11:05:46;;;;;;;52.85;21.10;;;;;;;-1.75;100.00;99621.30;4286359;81;44014;-79
2021/01/11 11:11:56;;;;;;;49.00;21.17;;;;;;;-1.71;100.00;99615.27;4280769;81;44099;-82
2021/01/11 11:17:58;;;;;;;45.95;19.30;;;;;;;-1.63;100.00;99600.92;4269788;81;43772;-78
2021/01/11 11:24:00;;;;;;;43.42;18.42;;;;;;;-1.52;100.00;99595.98;4269755;81;43660;-87
2021/01/11 11:30:06;;;;;;;43.50;18.37;;;;;;;-1.41;100.00;99581.83;4279392;81;43648;-82
2021/01/11 11:36:09;;;;;;;36.85;15.55;;;;;;;-1.29;100.00;99583.34;4281943;81;44489;-82
2021/01/11 11:42:11;;;;;;;31.70;13.98;;;;;;;-1.18;100.00;99578.88;4333843;80;44089;-82
2021/01/11 11:48:14;;;;;;;39.03;15.05;;;;;;;-1.09;100.00;99569.27;4265906;81;44441;-82
2021/01/11 11:54:16;;;;;;;27.05;11.57;;;;;;;-1.01;100.00;99564.12;4328795;80;43301;-83
2021/01/11 12:00:19;;;;;;;26.52;12.03;;;;;;;-0.94;100.00;99555.13;4265936;81;43266;-83
2021/01/11 12:06:22;;;;;;;30.75;13.13;;;;;;;-0.88;100.00;99549.29;4318046;82;43412;-82
2021/01/11 12:12:24;;;;;;;30.40;13.18;;;;;;;-0.83;100.00;99539.14;4322506;81;43410;-83
2021/01/11 12:18:28;;;;;;;35.58;14.85;;;;;;;-0.80;100.00;99532.25;4263287;81;44323;-84
2021/01/11 12:24:30;;;;;;;35.03;14.65;;;;;;;-0.75;100.00;99518.10;4340789;80;44081;-84
2021/01/11 12:30:32;;;;;;;34.18;14.13;;;;;;;-0.71;100.00;99519.97;4359021;79;44093;-85
2021/01/11 12:36:38;;;;;;;39.13;17.02;;;;;;;-0.74;100.00;99510.52;4282843;82;44426;-83
2021/01/11 12:42:40;;;;;;;33.63;15.20;;;;;;;-0.67;100.00;99509.47;4260574;83;28629;-83
2021/01/11 12:48:43;;;;;;;31.80;13.95;;;;;;;-0.69;100.00;99500.84;4348734;80;44111;-83
2021/01/11 12:54:45;;;;;;;30.62;14.63;;;;;;;-0.66;100.00;99491.80;4340831;79;44150;-82
2021/01/11 13:00:48;;;;;;;34.05;14.58;;;;;;;-0.65;100.00;99497.42;4362324;79;44122;-82
2021/01/11 13:06:50;;;;;;;34.60;14.78;;;;;;;-0.61;100.00;99495.66;4359436;79;44134;-82
2021/01/11 13:12:52;;;;;;;30.77;13.58;;;;;;;-0.56;100.00;99497.86;4348420;79;44077;-82
2021/01/11 13:19:01;;;;;;;27.90;12.60;;;;;;;-0.58;100.00;99497.19;4351042;80;43415;-82
2021/01/11 13:25:05;;;;;;;29.30;12.98;;;;;;;-0.58;100.00;99494.04;4326801;80;43386;-82
2021/01/11 13:31:07;;;;;;;30.95;12.37;;;;;;;-0.60;100.00;99494.68;4184722;84;43433;-81
2021/01/11 13:37:10;;;;;;;33.13;12.35;;;;;;;-0.62;100.00;99487.91;4240823;83;44088;-82
2021/01/11 13:43:12;;;;;;;30.75;12.95;;;;;;;-0.66;100.00;99492.65;4203452;84;43422;-84
2021/01/11 13:49:21;;;;;;;31.90;12.07;;;;;;;-0.72;100.00;99490.58;4203141;83;43735;-85
2021/01/11 13:55:19;;;;;;;27.40;11.95;;;;;;;-0.75;100.00;99490.88;4183101;82;43512;-84
2021/01/11 14:01:21;;;;;;;29.30;12.25;;;;;;;-0.82;100.00;99489.80;4186181;82;43474;-84
2021/01/11 14:07:32;;;;;;;26.68;12.15;;;;;;;-0.92;100.00;99489.34;4196762;84;43389;-85
2021/01/11 14:13:34;;;;;;;29.65;12.05;;;;;;;-0.95;100.00;99486.16;4206144;84;43391;-84
2021/01/11 14:19:38;;;;;;;26.55;11.43;;;;;;;-1.03;100.00;99479.82;4228922;81;42853;-83
2021/01/11 14:25:41;;;;;;;21.45;10.05;;;;;;;-1.08;100.00;99482.05;4314039;80;44494;-86
2021/01/11 14:31:43;;;;;;;20.65;9.33;;;;;;;-1.18;100.00;99479.45;4256975;81;43964;-84
2021/01/11 14:37:45;;;;;;;28.17;11.15;;;;;;;-1.28;100.00;99486.56;4317729;80;43403;-84
2021/01/11 14:43:48;;;;;;;23.70;11.08;;;;;;;-1.46;100.00;99478.06;4265682;82;43735;-89
2021/01/11 14:49:51;;;;;;;23.80;11.53;;;;;;;-1.64;100.00;99487.66;4324645;80;42870;-85
2021/01/11 14:55:53;;;;;;;34.70;14.75;;;;;;;-1.85;100.00;99491.29;4244405;82;44252;-83
2021/01/11 15:01:57;;;;;;;37.90;17.42;;;;;;;-1.79;100.00;99493.85;4308142;82;44427;-85
2021/01/11 15:07:59;;;;;;;47.83;18.75;;;;;;;-1.88;100.00;99484.48;4275334;81;43737;-87
2021/01/11 15:14:01;;;;;;;47.58;19.37;;;;;;;-2.04;100.00;99482.41;4330920;80;43733;-86
2021/01/11 15:20:05;;;;;;;49.15;19.42;;;;;;;-2.17;100.00;99485.80;4246833;81;44092;-86
2021/01/11 15:26:08;;;;;;;44.60;17.23;;;;;;;-2.31;100.00;99483.09;4306965;80;43757;-83
2021/01/11 15:32:11;;;;;;;36.88;15.45;;;;;;;-2.43;100.00;99487.66;4239800;82;44427;-85
2021/01/11 15:38:14;;;;;;;42.62;17.65;;;;;;;-2.54;100.00;99485.95;4274376;82;43692;-85
2021/01/11 15:44:16;;;;;;;42.93;15.85;;;;;;;-2.68;100.00;99485.38;4246756;81;44435;-83
2021/01/11 15:50:18;;;;;;;35.52;14.47;;;;;;;-2.80;100.00;99478.06;4314739;80;44253;-83
2021/01/11 15:56:22;;;;;;;38.83;15.15;;;;;;;-2.94;100.00;99473.18;4252186;81;44446;-83
2021/01/11 16:02:25;;;;;;;41.60;17.67;;;;;;;-2.99;100.00;99472.73;4312381;80;44427;-82
2021/01/11 16:08:29;;;;;;;43.40;16.27;;;;;;;-3.08;100.00;99462.03;4246771;81;43674;-77
2021/01/11 16:14:35;;;;;;;42.05;17.87;;;;;;;-3.22;100.00;99461.08;4318657;80;43659;-79
2021/01/11 16:20:35;;;;;;;47.73;17.73;;;;;;;-3.37;100.00;99464.06;4217457;83;43787;-78
2021/01/11 16:26:38;;;;;;;41.60;17.42;;;;;;;-3.43;100.00;99454.06;4206113;83;44432;-77
2021/01/11 16:32:42;;;;;;;40.78;16.65;;;;;;;-3.50;100.00;99452.90;4201207;84;28602;-77
2021/01/11 16:38:44;;;;;;;44.67;17.02;;;;;;;-3.61;100.00;99450.34;4196495;83;43349;-76
2021/01/11 16:44:47;;;;;;;42.83;16.15;;;;;;;-3.74;100.00;99442.19;4216439;82;43645;-76
2021/01/11 16:50:49;;;;;;;43.75;16.55;;;;;;;-3.90;100.00;99440.48;4351309;79;43305;-77
2021/01/11 16:56:56;;;;;;;39.23;16.60;;;;;;;-3.97;100.00;99436.22;4347276;81;44483;-78
2021/01/11 17:02:58;;;;;;;40.85;16.00;;;;;;;-4.00;100.00;99438.64;4350228;80;44446;-77
2021/01/11 17:09:00;;;;;;;40.03;16.05;;;;;;;-3.96;100.00;99426.06;4358422;79;44489;-77
2021/01/11 17:15:07;;;;;;;44.67;16.67;;;;;;;-4.12;100.00;99434.38;4348807;80;43662;-76
2021/01/11 17:21:09;;;;;;;41.58;16.30;;;;;;;-4.27;100.00;99423.34;4325084;80;44440;-78
2021/01/11 17:27:12;;;;;;;39.00;17.32;;;;;;;-4.28;100.00;99422.52;4330102;80;44502;-77
2021/01/11 17:33:14;;;;;;;37.48;15.55;;;;;;;-4.28;100.00;99419.05;4248905;81;44525;-76
2021/01/11 17:39:16;;;;;;;38.63;15.93;;;;;;;-4.37;100.00;99412.30;4244852;82;44453;-81
2021/01/11 17:45:19;;;;;;;41.95;16.70;;;;;;;-4.52;100.00;99413.08;4274499;81;44496;-78
2021/01/11 17:51:22;;;;;;;44.18;17.00;;;;;;;-4.50;100.00;99411.62;4287067;81;44020;-81
2021/01/11 17:57:24;;;;;;;41.70;15.80;;;;;;;-4.43;100.00;99404.92;4280457;81;44837;-81
2021/01/11 18:03:27;;;;;;;45.52;18.75;;;;;;;-4.36;100.00;99410.50;4305348;80;43807;-81
2021/01/11 18:09:30;;;;;;;44.93;17.35;;;;;;;-4.30;100.00;99407.37;4252211;81;43806;-80
2021/01/11 18:15:32;;;;;;;50.12;17.90;;;;;;;-4.50;100.00;99407.68;4324422;80;42928;-80
2021/01/11 18:21:34;;;;;;;44.48;16.73;;;;;;;-4.67;100.00;99415.14;4259741;81;44141;-80
2021/01/11 18:27:36;;;;;;;48.05;19.67;;;;;;;-4.54;100.00;99414.97;4355407;81;43966;-79
2021/01/11 18:33:39;;;;;;;40.15;18.07;;;;;;;-4.51;100.00;99410.80;4372487;79;44505;-79
2021/01/11 18:39:41;;;;;;;39.98;15.90;;;;;;;-4.63;100.00;99408.68;4369645;81;44434;-78
2021/01/11 18:45:45;;;;;;;45.70;17.17;;;;;;;-4.91;100.00;99408.27;4348161;80;43736;-79
2021/01/11 18:51:47;;;;;;;44.30;17.55;;;;;;;-4.84;100.00;99409.95;4358176;79;43777;-78
2021/01/11 18:57:50;;;;;;;46.37;19.48;;;;;;;-5.00;100.00;99405.05;4345749;80;43845;-78
2021/01/11 19:03:52;;;;;;;57.13;22.52;;;;;;;-4.95;100.00;99402.06;4358488;79;44139;-77
2021/01/11 19:09:54;;;;;;;48.20;20.60;;;;;;;-4.96;100.00;99394.70;4341114;79;44101;-82
2021/01/11 19:15:56;;;;;;;50.83;21.07;;;;;;;-5.15;100.00;99395.80;4375476;81;44005;-79
2021/01/11 19:21:59;;;;;;;54.20;20.82;;;;;;;-5.26;100.00;99383.05;4344584;79;44150;-80
2021/01/11 19:28:01;;;;;;;56.28;23.18;;;;;;;-5.23;100.00;99384.61;4325534;81;44179;-80
2021/01/11 19:34:06;;;;;;;61.45;24.90;;;;;;;-5.42;100.00;99382.58;4332927;80;43224;-79
2021/01/11 19:40:10;;;;;;;57.23;23.70;;;;;;;-5.35;100.00;99379.38;4329635;81;44119;-80
2021/01/11 19:46:12;;;;;;;60.38;24.15;;;;;;;-5.27;100.00;99371.37;4342418;80;44076;-81
2021/01/11 19:52:15;;;;;;;59.53;24.90;;;;;;;-5.39;100.00;99367.45;4332708;81;44147;-80
2021/01/11 19:58:19;;;;;;;64.12;26.68;;;;;;;-5.57;100.00;99360.55;4331647;81;43289;-81
2021/01/11 20:04:21;;;;;;;63.45;26.10;;;;;;;-5.60;100.00;99363.42;4330138;81;43095;-82
2021/01/11 20:10:24;;;;;;;61.28;25.12;;;;;;;-5.56;100.00;99358.78;4326878;80;43951;-83
2021/01/11 20:16:31;;;;;;;60.83;25.82;;;;;;;-5.80;100.00;99347.91;4327794;80;43071;-80
2021/01/11 20:22:41;;;;;;;65.70;26.67;;;;;;;-5.67;100.00;99337.33;4297109;81;28551;-82
2021/01/11 20:28:46;;;;;;;67.65;25.48;;;;;;;-5.50;100.00;99339.48;4331465;81;43427;-77
2021/01/11 20:34:49;;;;;;;;;;;;;;;-5.45;100.00;99336.50;4428716;79;28550;-76
2021/01/11 20:40:52;;;;;;;58.95;23.60;;;;;;;-5.67;100.00;99340.80;4326460;81;44093;-79
2021/01/11 20:46:57;;;;;;;65.62;25.50;;;;;;;-5.91;100.00;99325.19;4424679;78;43369;-77
2021/01/11 20:52:59;;;;;;;85.25;30.17;;;;;;;-5.89;100.00;99327.20;4400231;79;43262;-79
2021/01/11 20:59:01;;;;;;;91.42;32.45;;;;;;;-5.86;100.00;99314.36;4407428;79;44153;-78
2021/01/11 21:05:05;;;;;;;88.60;31.05;;;;;;;-5.80;100.00;99313.41;4413567;78;44099;-78
2021/01/11 21:11:08;;;;;;;78.62;30.32;;;;;;;-5.82;100.00;99300.91;4305224;81;28636;-76
2021/01/11 21:17:11;;;;;;;85.40;33.05;;;;;;;-6.05;100.00;99283.07;4301015;81;44109;-77
2021/01/11 21:23:14;;;;;;;86.37;33.08;;;;;;;-6.08;100.00;99290.67;4336225;80;44078;-80
2021/01/11 21:29:18;;;;;;;84.45;32.30;;;;;;;-5.81;100.00;99280.31;4272843;81;43729;-79
2021/01/11 21:35:20;;;;;;;84.70;32.20;;;;;;;-5.93;100.00;99276.84;4308043;80;43277;-78
2021/01/11 21:41:25;;;;;;;86.72;31.73;;;;;;;-6.16;100.00;99282.57;4253940;81;28609;-80
2021/01/11 21:47:31;;;;;;;86.95;31.57;;;;;;;-6.14;100.00;99272.84;4319022;82;43423;-79
2021/01/11 21:53:35;;;;;;;91.25;33.30;;;;;;;-6.04;100.00;99263.79;4232934;81;44139;-79
2021/01/11 21:59:37;;;;;;;95.97;34.38;;;;;;;-6.24;100.00;99254.87;4305730;81;44129;-78
2021/01/11 22:05:39;;;;;;;89.52;33.30;;;;;;;-6.38;100.00;99247.58;4302180;82;44067;-76
2021/01/11 22:11:50;;;;;;;93.60;33.88;;;;;;;-6.46;100.00;99236.39;4321046;80;44109;-80
2021/01/11 22:17:52;;;;;;;94.45;33.55;;;;;;;-6.46;100.00;99222.00;4246485;83;44149;-76
2021/01/11 22:23:55;;;;;;;118.75;40.67;;;;;;;-6.18;100.00;99214.66;4323108;80;44611;-77
2021/01/11 22:29:57;;;;;;;99.10;34.73;;;;;;;-6.03;100.00;99212.62;4319918;80;44155;-78
2021/01/11 22:36:00;;;;;;;91.85;33.33;;;;;;;-6.20;100.00;99202.14;4300695;80;44143;-77
2021/01/11 22:42:04;;;;;;;96.02;34.08;;;;;;;-6.34;100.00;99203.69;4307558;80;44537;-77
2021/01/11 22:48:07;;;;;;;97.50;37.00;;;;;;;-6.50;100.00;99188.34;4319253;80;34382;-77
2021/01/11 22:54:12;;;;;;;103.20;37.73;;;;;;;-6.63;100.00;99193.21;4261991;82;44252;-77
2021/01/11 23:00:16;;;;;;;98.85;37.30;;;;;;;-6.65;100.00;99188.58;4261803;82;44455;-76
2021/01/11 23:06:18;;;;;;;100.72;37.33;;;;;;;-6.76;100.00;99192.48;4319003;81;28647;-76
2021/01/11 23:12:20;;;;;;;104.60;37.42;;;;;;;-6.89;100.00;99178.19;4272406;81;43653;-76
2021/01/11 23:18:23;;;;;;;101.60;36.20;;;;;;;-7.02;100.00;99176.50;4295614;81;44503;-75
2021/01/11 23:24:25;;;;;;;94.62;34.63;;;;;;;-7.03;100.00;99170.07;4235677;82;44544;-77
2021/01/11 23:30:27;;;;;;;95.77;35.70;;;;;;;-7.21;100.00;99168.36;4285815;80;44505;-77
2021/01/11 23:36:30;;;;;;;94.30;36.25;;;;;;;-7.23;100.00;99161.93;4227902;81;44444;-77
2021/01/11 23:42:32;;;;;;;99.15;36.40;;;;;;;-7.29;100.00;99156.69;4328321;81;44465;-77
2021/01/11 23:48:34;;;;;;;98.17;35.52;;;;;;;-7.28;100.00;99154.43;4269992;81;44465;-77
2021/01/11 23:54:38;;;;;;;93.85;35.20;;;;;;;-7.36;100.00;99145.02;4335507;81;44268;-76
